sensor_id;sensor_type;location;lat;lon;timestamp;P1;durP1;ratioP1;P2;durP2;ratioP2
4053;SDS011;2042;47.956;9.222;2022-07-12T00:02:00;3.30;;;3.00;;
4053;SDS011;2042;47.956;9.222;2022-07-12T00:04:26;6.43;;;3.47;;
4053;SDS011;2042;47.956;9.222;2022-07-12T00:06:52;4.67;;;3.40;;
4053;SDS011;2042;47.956;9.222;2022-07-12T00:09:18;7.90;;;3.87;;
4053;SDS011;2042;47.956;9.222;2022-07-12T00:11:44;3.80;;;3.50;;
4053;SDS011;2042;47.956;9.222;2022-07-12T00:14:10;2.70;;;2.40;;
4053;SDS011;2042;47.956;9.222;2022-07-12T00:16:35;3.60;;;3.17;;
4053;SDS011;2042;47.956;9.222;2022-07-12T00:19:01;3.07;;;2.87;;
4053;SDS011;2042;47.956;9.222;2022-07-12T00:21:27;6.67;;;2.93;;
4053;SDS011;2042;47.956;9.222;2022-07-12T00:23:53;21.33;;;3.23;;
4053;SDS011;2042;47.956;9.222;2022-07-12T00:26:18;3.90;;;2.80;;
4053;SDS011;2042;47.956;9.222;2022-07-12T00:28:44;4.23;;;3.83;;
4053;SDS011;2042;47.956;9.222;2022-07-12T00:31:10;4.90;;;3.80;;
4053;SDS011;2042;47.956;9.222;2022-07-12T00:33:36;4.67;;;4.27;;
4053;SDS011;2042;47.956;9.222;2022-07-12T00:36:02;4.90;;;4.40;;
4053;SDS011;2042;47.956;9.222;2022-07-12T00:38:28;4.00;;;3.17;;
4053;SDS011;2042;47.956;9.222;2022-07-12T00:40:54;3.70;;;3.03;;
4053;SDS011;2042;47.956;9.222;2022-07-12T00:43:19;3.40;;;3.13;;
4053;SDS011;2042;47.956;9.222;2022-07-12T00:45:45;4.30;;;3.90;;
4053;SDS011;2042;47.956;9.222;2022-07-12T00:48:11;4.67;;;4.27;;
4053;SDS011;2042;47.956;9.222;2022-07-12T00:50:37;4.30;;;3.60;;
4053;SDS011;2042;47.956;9.222;2022-07-12T00:53:02;3.80;;;3.30;;
4053;SDS011;2042;47.956;9.222;2022-07-12T00:55:29;6.40;;;3.73;;
4053;SDS011;2042;47.956;9.222;2022-07-12T00:57:54;4.60;;;3.57;;
4053;SDS011;2042;47.956;9.222;2022-07-12T01:00:21;3.70;;;3.20;;
4053;SDS011;2042;47.956;9.222;2022-07-12T01:02:49;3.80;;;3.50;;
4053;SDS011;2042;47.956;9.222;2022-07-12T01:05:16;7.17;;;3.70;;
4053;SDS011;2042;47.956;9.222;2022-07-12T01:07:41;4.17;;;3.73;;
4053;SDS011;2042;47.956;9.222;2022-07-12T01:10:09;4.17;;;3.77;;
4053;SDS011;2042;47.956;9.222;2022-07-12T01:12:35;4.37;;;3.63;;
4053;SDS011;2042;47.956;9.222;2022-07-12T01:15:02;3.40;;;3.10;;
4053;SDS011;2042;47.956;9.222;2022-07-12T01:17:31;4.50;;;4.10;;
4053;SDS011;2042;47.956;9.222;2022-07-12T01:19:57;4.40;;;3.60;;
4053;SDS011;2042;47.956;9.222;2022-07-12T01:22:26;3.80;;;3.50;;
4053;SDS011;2042;47.956;9.222;2022-07-12T01:24:54;3.60;;;3.27;;
4053;SDS011;2042;47.956;9.222;2022-07-12T01:27:20;4.30;;;3.77;;
4053;SDS011;2042;47.956;9.222;2022-07-12T01:29:46;4.00;;;3.70;;
4053;SDS011;2042;47.956;9.222;2022-07-12T01:32:11;5.37;;;3.90;;
4053;SDS011;2042;47.956;9.222;2022-07-12T01:35:04;4.13;;;3.53;;
4053;SDS011;2042;47.956;9.222;2022-07-12T01:37:36;6.10;;;4.20;;
4053;SDS011;2042;47.956;9.222;2022-07-12T01:40:06;4.47;;;3.60;;
4053;SDS011;2042;47.956;9.222;2022-07-12T01:42:33;4.70;;;4.10;;
4053;SDS011;2042;47.956;9.222;2022-07-12T01:45:00;5.40;;;3.70;;
4053;SDS011;2042;47.956;9.222;2022-07-12T01:47:27;3.90;;;3.50;;
4053;SDS011;2042;47.956;9.222;2022-07-12T01:49:56;4.07;;;3.70;;
4053;SDS011;2042;47.956;9.222;2022-07-12T01:52:22;4.13;;;3.20;;
4053;SDS011;2042;47.956;9.222;2022-07-12T01:54:48;3.67;;;3.30;;
4053;SDS011;2042;47.956;9.222;2022-07-12T01:57:14;3.00;;;2.70;;
4053;SDS011;2042;47.956;9.222;2022-07-12T01:59:41;4.87;;;2.93;;
4053;SDS011;2042;47.956;9.222;2022-07-12T02:02:07;5.40;;;3.13;;
4053;SDS011;2042;47.956;9.222;2022-07-12T02:04:33;3.30;;;3.10;;
4053;SDS011;2042;47.956;9.222;2022-07-12T02:07:00;3.50;;;3.17;;
4053;SDS011;2042;47.956;9.222;2022-07-12T02:09:25;5.00;;;3.40;;
4053;SDS011;2042;47.956;9.222;2022-07-12T02:11:52;3.43;;;3.13;;
4053;SDS011;2042;47.956;9.222;2022-07-12T02:14:18;3.50;;;3.20;;
4053;SDS011;2042;47.956;9.222;2022-07-12T02:16:44;3.37;;;3.07;;
4053;SDS011;2042;47.956;9.222;2022-07-12T02:19:11;5.40;;;4.03;;
4053;SDS011;2042;47.956;9.222;2022-07-12T02:21:37;3.90;;;3.40;;
4053;SDS011;2042;47.956;9.222;2022-07-12T02:24:04;2.93;;;2.73;;
4053;SDS011;2042;47.956;9.222;2022-07-12T02:26:32;3.03;;;2.80;;
4053;SDS011;2042;47.956;9.222;2022-07-12T02:28:59;4.80;;;3.80;;
4053;SDS011;2042;47.956;9.222;2022-07-12T02:31:25;4.10;;;3.70;;
4053;SDS011;2042;47.956;9.222;2022-07-12T02:33:51;3.40;;;3.10;;
4053;SDS011;2042;47.956;9.222;2022-07-12T02:36:17;6.83;;;4.93;;
4053;SDS011;2042;47.956;9.222;2022-07-12T02:38:43;3.93;;;3.40;;
4053;SDS011;2042;47.956;9.222;2022-07-12T02:41:09;4.37;;;3.97;;
4053;SDS011;2042;47.956;9.222;2022-07-12T02:43:34;5.43;;;4.80;;
4053;SDS011;2042;47.956;9.222;2022-07-12T02:46:04;3.90;;;3.50;;
4053;SDS011;2042;47.956;9.222;2022-07-12T02:48:34;6.27;;;4.93;;
4053;SDS011;2042;47.956;9.222;2022-07-12T02:51:01;4.07;;;3.53;;
4053;SDS011;2042;47.956;9.222;2022-07-12T02:53:28;7.40;;;3.87;;
4053;SDS011;2042;47.956;9.222;2022-07-12T02:55:54;4.70;;;3.60;;
4053;SDS011;2042;47.956;9.222;2022-07-12T02:58:19;6.10;;;4.03;;
4053;SDS011;2042;47.956;9.222;2022-07-12T03:00:46;6.97;;;4.10;;
4053;SDS011;2042;47.956;9.222;2022-07-12T03:03:12;4.80;;;3.73;;
4053;SDS011;2042;47.956;9.222;2022-07-12T03:05:39;5.03;;;4.00;;
4053;SDS011;2042;47.956;9.222;2022-07-12T03:08:09;5.23;;;4.20;;
4053;SDS011;2042;47.956;9.222;2022-07-12T03:10:36;4.00;;;3.70;;
4053;SDS011;2042;47.956;9.222;2022-07-12T03:13:02;3.90;;;2.80;;
4053;SDS011;2042;47.956;9.222;2022-07-12T03:15:28;5.00;;;3.93;;
4053;SDS011;2042;47.956;9.222;2022-07-12T03:17:59;5.13;;;4.37;;
4053;SDS011;2042;47.956;9.222;2022-07-12T03:20:26;5.83;;;4.77;;
4053;SDS011;2042;47.956;9.222;2022-07-12T03:22:52;5.83;;;4.77;;
4053;SDS011;2042;47.956;9.222;2022-07-12T03:25:19;5.20;;;4.60;;
4053;SDS011;2042;47.956;9.222;2022-07-12T03:27:46;5.00;;;4.27;;
4053;SDS011;2042;47.956;9.222;2022-07-12T03:30:12;5.17;;;4.10;;
4053;SDS011;2042;47.956;9.222;2022-07-12T03:32:38;4.00;;;3.63;;
4053;SDS011;2042;47.956;9.222;2022-07-12T03:35:05;5.27;;;4.37;;
4053;SDS011;2042;47.956;9.222;2022-07-12T03:37:44;5.77;;;4.20;;
4053;SDS011;2042;47.956;9.222;2022-07-12T03:40:10;6.00;;;3.93;;
4053;SDS011;2042;47.956;9.222;2022-07-12T03:42:37;5.90;;;4.63;;
4053;SDS011;2042;47.956;9.222;2022-07-12T03:45:02;6.03;;;4.03;;
4053;SDS011;2042;47.956;9.222;2022-07-12T03:47:28;9.40;;;4.87;;
4053;SDS011;2042;47.956;9.222;2022-07-12T03:49:55;12.53;;;6.07;;
4053;SDS011;2042;47.956;9.222;2022-07-12T03:52:21;4.00;;;3.60;;
4053;SDS011;2042;47.956;9.222;2022-07-12T03:54:47;4.37;;;3.97;;
4053;SDS011;2042;47.956;9.222;2022-07-12T03:57:12;17.20;;;5.93;;
4053;SDS011;2042;47.956;9.222;2022-07-12T03:59:38;29.60;;;7.27;;
4053;SDS011;2042;47.956;9.222;2022-07-12T04:02:04;18.67;;;7.50;;
4053;SDS011;2042;47.956;9.222;2022-07-12T04:04:30;21.10;;;5.60;;
4053;SDS011;2042;47.956;9.222;2022-07-12T04:06:55;36.00;;;7.00;;
4053;SDS011;2042;47.956;9.222;2022-07-12T04:09:21;38.57;;;9.00;;
4053;SDS011;2042;47.956;9.222;2022-07-12T04:11:47;20.50;;;5.67;;
4053;SDS011;2042;47.956;9.222;2022-07-12T04:14:14;56.47;;;8.53;;
4053;SDS011;2042;47.956;9.222;2022-07-12T04:16:40;56.73;;;8.97;;
4053;SDS011;2042;47.956;9.222;2022-07-12T04:19:06;37.53;;;8.90;;
4053;SDS011;2042;47.956;9.222;2022-07-12T04:21:34;30.97;;;7.83;;
4053;SDS011;2042;47.956;9.222;2022-07-12T04:24:00;104.20;;;16.60;;
4053;SDS011;2042;47.956;9.222;2022-07-12T04:26:26;98.33;;;17.33;;
4053;SDS011;2042;47.956;9.222;2022-07-12T04:28:52;115.13;;;15.77;;
4053;SDS011;2042;47.956;9.222;2022-07-12T04:31:17;90.27;;;12.63;;
4053;SDS011;2042;47.956;9.222;2022-07-12T04:33:43;128.50;;;15.30;;
4053;SDS011;2042;47.956;9.222;2022-07-12T04:36:09;109.40;;;15.20;;
4053;SDS011;2042;47.956;9.222;2022-07-12T04:38:35;122.30;;;16.73;;
4053;SDS011;2042;47.956;9.222;2022-07-12T04:41:00;91.33;;;14.07;;
4053;SDS011;2042;47.956;9.222;2022-07-12T04:43:26;87.93;;;11.53;;
4053;SDS011;2042;47.956;9.222;2022-07-12T04:45:52;158.17;;;17.90;;
4053;SDS011;2042;47.956;9.222;2022-07-12T04:48:17;185.13;;;21.70;;
4053;SDS011;2042;47.956;9.222;2022-07-12T04:50:43;163.47;;;20.53;;
4053;SDS011;2042;47.956;9.222;2022-07-12T04:53:09;126.27;;;19.80;;
4053;SDS011;2042;47.956;9.222;2022-07-12T04:55:35;146.00;;;17.77;;
4053;SDS011;2042;47.956;9.222;2022-07-12T04:58:01;171.67;;;24.03;;
4053;SDS011;2042;47.956;9.222;2022-07-12T05:00:29;221.60;;;26.53;;
4053;SDS011;2042;47.956;9.222;2022-07-12T05:02:55;211.73;;;26.00;;
4053;SDS011;2042;47.956;9.222;2022-07-12T05:05:21;173.13;;;25.00;;
4053;SDS011;2042;47.956;9.222;2022-07-12T05:07:46;161.70;;;22.57;;
4053;SDS011;2042;47.956;9.222;2022-07-12T05:10:12;170.67;;;23.50;;
4053;SDS011;2042;47.956;9.222;2022-07-12T05:12:38;144.20;;;21.37;;
4053;SDS011;2042;47.956;9.222;2022-07-12T05:15:04;126.73;;;21.03;;
4053;SDS011;2042;47.956;9.222;2022-07-12T05:17:31;93.30;;;17.53;;
4053;SDS011;2042;47.956;9.222;2022-07-12T05:19:57;77.00;;;14.53;;
4053;SDS011;2042;47.956;9.222;2022-07-12T05:22:23;83.80;;;15.00;;
4053;SDS011;2042;47.956;9.222;2022-07-12T05:24:49;52.10;;;9.93;;
4053;SDS011;2042;47.956;9.222;2022-07-12T05:27:14;47.80;;;10.50;;
4053;SDS011;2042;47.956;9.222;2022-07-12T05:29:40;22.63;;;7.53;;
4053;SDS011;2042;47.956;9.222;2022-07-12T05:32:06;17.50;;;6.27;;
4053;SDS011;2042;47.956;9.222;2022-07-12T05:34:32;25.47;;;5.80;;
4053;SDS011;2042;47.956;9.222;2022-07-12T05:36:58;10.43;;;5.77;;
4053;SDS011;2042;47.956;9.222;2022-07-12T05:39:24;15.50;;;5.23;;
4053;SDS011;2042;47.956;9.222;2022-07-12T05:41:49;9.70;;;5.40;;
4053;SDS011;2042;47.956;9.222;2022-07-12T05:44:15;7.80;;;5.27;;
4053;SDS011;2042;47.956;9.222;2022-07-12T05:46:42;15.52;;;6.50;;
4053;SDS011;2042;47.956;9.222;2022-07-12T05:49:08;12.13;;;5.60;;
4053;SDS011;2042;47.956;9.222;2022-07-12T05:51:34;7.13;;;3.87;;
4053;SDS011;2042;47.956;9.222;2022-07-12T05:54:18;11.10;;;4.70;;
4053;SDS011;2042;47.956;9.222;2022-07-12T05:56:44;6.20;;;4.60;;
4053;SDS011;2042;47.956;9.222;2022-07-12T05:59:10;8.83;;;5.20;;
4053;SDS011;2042;47.956;9.222;2022-07-12T06:01:36;16.17;;;4.63;;
4053;SDS011;2042;47.956;9.222;2022-07-12T06:04:02;11.13;;;4.40;;
4053;SDS011;2042;47.956;9.222;2022-07-12T06:06:29;11.57;;;4.63;;
4053;SDS011;2042;47.956;9.222;2022-07-12T06:08:55;26.53;;;4.40;;
4053;SDS011;2042;47.956;9.222;2022-07-12T06:11:21;5.33;;;4.70;;
4053;SDS011;2042;47.956;9.222;2022-07-12T06:13:47;4.90;;;4.40;;
4053;SDS011;2042;47.956;9.222;2022-07-12T06:16:14;5.00;;;4.57;;
4053;SDS011;2042;47.956;9.222;2022-07-12T06:18:39;6.63;;;4.73;;
4053;SDS011;2042;47.956;9.222;2022-07-12T06:21:06;5.93;;;4.70;;
4053;SDS011;2042;47.956;9.222;2022-07-12T06:23:32;4.60;;;4.20;;
4053;SDS011;2042;47.956;9.222;2022-07-12T06:25:57;5.80;;;4.37;;
4053;SDS011;2042;47.956;9.222;2022-07-12T06:28:23;4.73;;;4.33;;
4053;SDS011;2042;47.956;9.222;2022-07-12T06:30:48;5.80;;;4.00;;
4053;SDS011;2042;47.956;9.222;2022-07-12T06:33:15;6.60;;;4.20;;
4053;SDS011;2042;47.956;9.222;2022-07-12T06:35:40;5.97;;;4.60;;
4053;SDS011;2042;47.956;9.222;2022-07-12T06:38:07;9.20;;;3.80;;
4053;SDS011;2042;47.956;9.222;2022-07-12T06:40:32;6.87;;;4.67;;
4053;SDS011;2042;47.956;9.222;2022-07-12T06:42:58;7.20;;;5.30;;
4053;SDS011;2042;47.956;9.222;2022-07-12T06:45:24;10.63;;;5.50;;
4053;SDS011;2042;47.956;9.222;2022-07-12T06:47:50;4.93;;;4.23;;
4053;SDS011;2042;47.956;9.222;2022-07-12T06:50:17;8.80;;;3.90;;
4053;SDS011;2042;47.956;9.222;2022-07-12T06:52:42;6.97;;;5.70;;
4053;SDS011;2042;47.956;9.222;2022-07-12T06:55:08;5.03;;;3.80;;
4053;SDS011;2042;47.956;9.222;2022-07-12T06:57:34;8.20;;;4.60;;
4053;SDS011;2042;47.956;9.222;2022-07-12T07:00:00;5.70;;;3.53;;
4053;SDS011;2042;47.956;9.222;2022-07-12T07:02:29;4.70;;;4.30;;
4053;SDS011;2042;47.956;9.222;2022-07-12T07:04:54;4.23;;;3.83;;
4053;SDS011;2042;47.956;9.222;2022-07-12T07:07:20;4.60;;;3.60;;
4053;SDS011;2042;47.956;9.222;2022-07-12T07:09:46;4.33;;;3.73;;
4053;SDS011;2042;47.956;9.222;2022-07-12T07:12:12;4.13;;;3.43;;
4053;SDS011;2042;47.956;9.222;2022-07-12T07:14:38;3.20;;;2.90;;
4053;SDS011;2042;47.956;9.222;2022-07-12T07:17:03;3.93;;;3.63;;
4053;SDS011;2042;47.956;9.222;2022-07-12T07:19:29;6.13;;;4.80;;
4053;SDS011;2042;47.956;9.222;2022-07-12T07:21:55;4.03;;;3.43;;
4053;SDS011;2042;47.956;9.222;2022-07-12T07:24:21;6.93;;;3.37;;
4053;SDS011;2042;47.956;9.222;2022-07-12T07:26:48;4.93;;;4.07;;
4053;SDS011;2042;47.956;9.222;2022-07-12T07:29:14;3.40;;;3.17;;
4053;SDS011;2042;47.956;9.222;2022-07-12T07:31:58;3.90;;;3.50;;
4053;SDS011;2042;47.956;9.222;2022-07-12T07:34:24;3.73;;;3.20;;
4053;SDS011;2042;47.956;9.222;2022-07-12T07:36:50;3.23;;;2.87;;
4053;SDS011;2042;47.956;9.222;2022-07-12T07:39:16;3.67;;;3.47;;
4053;SDS011;2042;47.956;9.222;2022-07-12T07:41:42;5.47;;;3.17;;
4053;SDS011;2042;47.956;9.222;2022-07-12T07:44:08;3.17;;;2.90;;
4053;SDS011;2042;47.956;9.222;2022-07-12T07:46:34;3.87;;;3.07;;
4053;SDS011;2042;47.956;9.222;2022-07-12T07:49:00;4.50;;;3.17;;
4053;SDS011;2042;47.956;9.222;2022-07-12T07:51:26;3.40;;;3.10;;
4053;SDS011;2042;47.956;9.222;2022-07-12T07:53:52;3.27;;;3.00;;
4053;SDS011;2042;47.956;9.222;2022-07-12T07:56:18;3.47;;;3.17;;
4053;SDS011;2042;47.956;9.222;2022-07-12T07:58:44;3.33;;;3.03;;
4053;SDS011;2042;47.956;9.222;2022-07-12T08:01:10;3.10;;;2.90;;
4053;SDS011;2042;47.956;9.222;2022-07-12T08:03:36;3.70;;;3.40;;
4053;SDS011;2042;47.956;9.222;2022-07-12T08:06:02;3.60;;;2.67;;
4053;SDS011;2042;47.956;9.222;2022-07-12T08:08:28;3.60;;;3.30;;
4053;SDS011;2042;47.956;9.222;2022-07-12T08:10:54;2.37;;;2.17;;
4053;SDS011;2042;47.956;9.222;2022-07-12T08:13:20;2.90;;;2.70;;
4053;SDS011;2042;47.956;9.222;2022-07-12T08:15:45;2.50;;;2.30;;
4053;SDS011;2042;47.956;9.222;2022-07-12T08:18:11;2.73;;;2.53;;
4053;SDS011;2042;47.956;9.222;2022-07-12T08:20:37;3.83;;;2.80;;
4053;SDS011;2042;47.956;9.222;2022-07-12T08:23:03;5.33;;;3.10;;
4053;SDS011;2042;47.956;9.222;2022-07-12T08:25:29;3.13;;;2.90;;
4053;SDS011;2042;47.956;9.222;2022-07-12T08:27:55;2.60;;;2.40;;
4053;SDS011;2042;47.956;9.222;2022-07-12T08:30:20;2.70;;;2.50;;
4053;SDS011;2042;47.956;9.222;2022-07-12T08:32:46;3.00;;;2.80;;
4053;SDS011;2042;47.956;9.222;2022-07-12T08:35:12;5.00;;;2.60;;
4053;SDS011;2042;47.956;9.222;2022-07-12T08:37:39;3.03;;;2.83;;
4053;SDS011;2042;47.956;9.222;2022-07-12T08:40:07;2.23;;;2.13;;
4053;SDS011;2042;47.956;9.222;2022-07-12T08:42:34;6.33;;;3.83;;
4053;SDS011;2042;47.956;9.222;2022-07-12T08:45:00;2.50;;;2.30;;
4053;SDS011;2042;47.956;9.222;2022-07-12T08:47:26;2.67;;;2.47;;
4053;SDS011;2042;47.956;9.222;2022-07-12T08:52:40;2.47;;;2.27;;
4053;SDS011;2042;47.956;9.222;2022-07-12T08:55:15;2.53;;;2.40;;
4053;SDS011;2042;47.956;9.222;2022-07-12T08:57:45;2.47;;;2.27;;
4053;SDS011;2042;47.956;9.222;2022-07-12T09:00:12;3.20;;;2.67;;
4053;SDS011;2042;47.956;9.222;2022-07-12T09:02:54;3.37;;;2.60;;
4053;SDS011;2042;47.956;9.222;2022-07-12T09:05:22;3.07;;;2.20;;
4053;SDS011;2042;47.956;9.222;2022-07-12T09:07:49;2.53;;;2.33;;
4053;SDS011;2042;47.956;9.222;2022-07-12T09:10:16;2.40;;;2.20;;
4053;SDS011;2042;47.956;9.222;2022-07-12T09:12:43;2.10;;;2.00;;
4053;SDS011;2042;47.956;9.222;2022-07-12T09:15:19;2.67;;;2.47;;
4053;SDS011;2042;47.956;9.222;2022-07-12T09:20:33;2.80;;;2.60;;
4053;SDS011;2042;47.956;9.222;2022-07-12T09:23:03;2.10;;;2.00;;
4053;SDS011;2042;47.956;9.222;2022-07-12T09:25:29;2.13;;;2.03;;
4053;SDS011;2042;47.956;9.222;2022-07-12T09:27:57;2.33;;;2.23;;
4053;SDS011;2042;47.956;9.222;2022-07-12T09:30:24;3.10;;;2.10;;
4053;SDS011;2042;47.956;9.222;2022-07-12T09:33:02;5.00;;;1.93;;
4053;SDS011;2042;47.956;9.222;2022-07-12T09:38:33;2.27;;;2.17;;
4053;SDS011;2042;47.956;9.222;2022-07-12T09:41:00;2.60;;;1.80;;
4053;SDS011;2042;47.956;9.222;2022-07-12T09:43:26;2.70;;;2.50;;
4053;SDS011;2042;47.956;9.222;2022-07-12T09:45:52;2.57;;;2.37;;
4053;SDS011;2042;47.956;9.222;2022-07-12T09:48:19;2.63;;;2.00;;
4053;SDS011;2042;47.956;9.222;2022-07-12T09:50:48;2.80;;;2.60;;
4053;SDS011;2042;47.956;9.222;2022-07-12T09:53:22;2.20;;;2.10;;
4053;SDS011;2042;47.956;9.222;2022-07-12T09:55:57;2.50;;;2.30;;
4053;SDS011;2042;47.956;9.222;2022-07-12T09:58:24;3.43;;;2.70;;
4053;SDS011;2042;47.956;9.222;2022-07-12T10:00:55;2.50;;;2.30;;
4053;SDS011;2042;47.956;9.222;2022-07-12T10:03:25;2.43;;;2.27;;
4053;SDS011;2042;47.956;9.222;2022-07-12T10:05:56;2.50;;;2.30;;
4053;SDS011;2042;47.956;9.222;2022-07-12T10:08:24;2.50;;;2.40;;
4053;SDS011;2042;47.956;9.222;2022-07-12T10:10:50;2.30;;;1.87;;
4053;SDS011;2042;47.956;9.222;2022-07-12T10:13:17;2.20;;;2.00;;
4053;SDS011;2042;47.956;9.222;2022-07-12T10:15:44;2.20;;;2.10;;
4053;SDS011;2042;47.956;9.222;2022-07-12T10:18:21;2.85;;;2.08;;
4053;SDS011;2042;47.956;9.222;2022-07-12T10:20:47;2.22;;;2.03;;
4053;SDS011;2042;47.956;9.222;2022-07-12T10:23:35;1.65;;;1.55;;
4053;SDS011;2042;47.956;9.222;2022-07-12T10:31:28;2.20;;;2.10;;
4053;SDS011;2042;47.956;9.222;2022-07-12T10:39:25;1.90;;;1.80;;
4053;SDS011;2042;47.956;9.222;2022-07-12T10:44:33;1.90;;;1.80;;
4053;SDS011;2042;47.956;9.222;2022-07-12T10:46:59;2.87;;;2.13;;
4053;SDS011;2042;47.956;9.222;2022-07-12T10:49:29;1.67;;;1.58;;
4053;SDS011;2042;47.956;9.222;2022-07-12T10:52:29;2.40;;;2.00;;
4053;SDS011;2042;47.956;9.222;2022-07-12T10:58:00;1.90;;;1.80;;
4053;SDS011;2042;47.956;9.222;2022-07-12T11:00:09;2.08;;;1.98;;
4053;SDS011;2042;47.956;9.222;2022-07-12T11:02:36;3.00;;;1.98;;
4053;SDS011;2042;47.956;9.222;2022-07-12T11:05:03;1.63;;;1.52;;
4053;SDS011;2042;47.956;9.222;2022-07-12T11:07:29;5.90;;;2.10;;
4053;SDS011;2042;47.956;9.222;2022-07-12T11:09:56;2.25;;;1.95;;
4053;SDS011;2042;47.956;9.222;2022-07-12T11:12:30;2.20;;;2.00;;
4053;SDS011;2042;47.956;9.222;2022-07-12T11:15:01;2.40;;;1.50;;
4053;SDS011;2042;47.956;9.222;2022-07-12T11:17:29;2.60;;;2.40;;
4053;SDS011;2042;47.956;9.222;2022-07-12T11:20:07;1.50;;;1.40;;
4053;SDS011;2042;47.956;9.222;2022-07-12T11:22:35;2.90;;;1.70;;
4053;SDS011;2042;47.956;9.222;2022-07-12T11:25:02;1.73;;;1.63;;
4053;SDS011;2042;47.956;9.222;2022-07-12T11:27:30;2.30;;;2.10;;
4053;SDS011;2042;47.956;9.222;2022-07-12T11:29:56;1.90;;;1.80;;
4053;SDS011;2042;47.956;9.222;2022-07-12T11:32:32;2.70;;;1.80;;
4053;SDS011;2042;47.956;9.222;2022-07-12T11:34:59;1.90;;;1.80;;
4053;SDS011;2042;47.956;9.222;2022-07-12T11:37:26;1.60;;;1.50;;
4053;SDS011;2042;47.956;9.222;2022-07-12T11:39:52;1.73;;;1.60;;
4053;SDS011;2042;47.956;9.222;2022-07-12T11:42:18;2.35;;;2.10;;
4053;SDS011;2042;47.956;9.222;2022-07-12T11:44:50;5.03;;;1.63;;
4053;SDS011;2042;47.956;9.222;2022-07-12T11:47:18;2.85;;;2.20;;
4053;SDS011;2042;47.956;9.222;2022-07-12T11:49:54;2.45;;;2.00;;
4053;SDS011;2042;47.956;9.222;2022-07-12T11:52:21;2.40;;;1.80;;
4053;SDS011;2042;47.956;9.222;2022-07-12T11:54:48;1.77;;;1.67;;
4053;SDS011;2042;47.956;9.222;2022-07-12T11:57:18;1.30;;;1.20;;
4053;SDS011;2042;47.956;9.222;2022-07-12T11:59:46;1.50;;;1.40;;
4053;SDS011;2042;47.956;9.222;2022-07-12T12:02:13;1.88;;;1.77;;
4053;SDS011;2042;47.956;9.222;2022-07-12T12:04:44;1.77;;;1.67;;
4053;SDS011;2042;47.956;9.222;2022-07-12T12:07:17;1.77;;;1.67;;
4053;SDS011;2042;47.956;9.222;2022-07-12T12:15:06;1.73;;;1.30;;
4053;SDS011;2042;47.956;9.222;2022-07-12T12:17:34;1.40;;;1.30;;
4053;SDS011;2042;47.956;9.222;2022-07-12T12:20:20;1.80;;;1.70;;
4053;SDS011;2042;47.956;9.222;2022-07-12T12:23:00;1.50;;;1.40;;
4053;SDS011;2042;47.956;9.222;2022-07-12T12:25:28;1.67;;;1.45;;
4053;SDS011;2042;47.956;9.222;2022-07-12T12:27:55;1.60;;;1.50;;
4053;SDS011;2042;47.956;9.222;2022-07-12T12:30:30;1.65;;;1.30;;
4053;SDS011;2042;47.956;9.222;2022-07-12T12:33:32;1.80;;;1.70;;
4053;SDS011;2042;47.956;9.222;2022-07-12T12:36:10;1.88;;;1.45;;
4053;SDS011;2042;47.956;9.222;2022-07-12T12:38:40;1.60;;;1.50;;
4053;SDS011;2042;47.956;9.222;2022-07-12T12:41:07;3.10;;;1.55;;
4053;SDS011;2042;47.956;9.222;2022-07-12T12:43:34;1.75;;;1.65;;
4053;SDS011;2042;47.956;9.222;2022-07-12T12:46:01;1.48;;;1.38;;
4053;SDS011;2042;47.956;9.222;2022-07-12T12:48:28;1.70;;;1.48;;
4053;SDS011;2042;47.956;9.222;2022-07-12T12:53:34;1.50;;;1.40;;
4053;SDS011;2042;47.956;9.222;2022-07-12T12:56:22;1.40;;;1.30;;
4053;SDS011;2042;47.956;9.222;2022-07-12T12:58:48;1.60;;;1.50;;
4053;SDS011;2042;47.956;9.222;2022-07-12T13:01:14;2.97;;;1.75;;
4053;SDS011;2042;47.956;9.222;2022-07-12T13:03:40;1.70;;;1.38;;
4053;SDS011;2042;47.956;9.222;2022-07-12T13:06:05;1.90;;;1.80;;
4053;SDS011;2042;47.956;9.222;2022-07-12T13:08:31;1.65;;;1.55;;
4053;SDS011;2042;47.956;9.222;2022-07-12T13:10:57;2.38;;;1.52;;
4053;SDS011;2042;47.956;9.222;2022-07-12T13:13:42;1.45;;;1.35;;
4053;SDS011;2042;47.956;9.222;2022-07-12T13:16:08;1.45;;;1.35;;
4053;SDS011;2042;47.956;9.222;2022-07-12T13:18:33;1.48;;;1.38;;
4053;SDS011;2042;47.956;9.222;2022-07-12T13:20:59;1.40;;;1.30;;
4053;SDS011;2042;47.956;9.222;2022-07-12T13:23:25;1.58;;;1.48;;
4053;SDS011;2042;47.956;9.222;2022-07-12T13:25:51;1.05;;;1.00;;
4053;SDS011;2042;47.956;9.222;2022-07-12T13:28:17;1.50;;;1.40;;
4053;SDS011;2042;47.956;9.222;2022-07-12T13:30:43;1.17;;;1.08;;
4053;SDS011;2042;47.956;9.222;2022-07-12T13:33:08;1.55;;;1.45;;
4053;SDS011;2042;47.956;9.222;2022-07-12T13:35:34;1.45;;;1.35;;
4053;SDS011;2042;47.956;9.222;2022-07-12T13:38:00;1.30;;;1.20;;
4053;SDS011;2042;47.956;9.222;2022-07-12T13:40:26;1.30;;;1.20;;
4053;SDS011;2042;47.956;9.222;2022-07-12T13:42:52;1.50;;;1.40;;
4053;SDS011;2042;47.956;9.222;2022-07-12T13:45:20;1.40;;;1.30;;
4053;SDS011;2042;47.956;9.222;2022-07-12T13:47:48;1.40;;;1.30;;
4053;SDS011;2042;47.956;9.222;2022-07-12T13:50:15;1.80;;;1.70;;
4053;SDS011;2042;47.956;9.222;2022-07-12T13:52:43;1.23;;;1.13;;
4053;SDS011;2042;47.956;9.222;2022-07-12T13:55:10;1.33;;;1.23;;
4053;SDS011;2042;47.956;9.222;2022-07-12T13:57:38;1.70;;;1.40;;
4053;SDS011;2042;47.956;9.222;2022-07-12T14:00:06;1.70;;;1.20;;
4053;SDS011;2042;47.956;9.222;2022-07-12T14:02:35;1.50;;;1.40;;
4053;SDS011;2042;47.956;9.222;2022-07-12T14:05:02;1.58;;;1.48;;
4053;SDS011;2042;47.956;9.222;2022-07-12T14:07:29;1.30;;;1.20;;
4053;SDS011;2042;47.956;9.222;2022-07-12T14:09:56;1.23;;;1.13;;
4053;SDS011;2042;47.956;9.222;2022-07-12T14:12:21;1.30;;;1.20;;
4053;SDS011;2042;47.956;9.222;2022-07-12T14:14:47;1.38;;;1.13;;
4053;SDS011;2042;47.956;9.222;2022-07-12T14:17:32;1.45;;;1.30;;
4053;SDS011;2042;47.956;9.222;2022-07-12T14:19:58;1.40;;;1.30;;
4053;SDS011;2042;47.956;9.222;2022-07-12T14:22:25;1.50;;;1.40;;
4053;SDS011;2042;47.956;9.222;2022-07-12T14:24:51;1.98;;;1.30;;
4053;SDS011;2042;47.956;9.222;2022-07-12T14:27:17;1.10;;;1.00;;
4053;SDS011;2042;47.956;9.222;2022-07-12T14:29:43;1.40;;;1.30;;
4053;SDS011;2042;47.956;9.222;2022-07-12T14:32:09;1.58;;;1.48;;
4053;SDS011;2042;47.956;9.222;2022-07-12T14:34:35;1.40;;;1.30;;
4053;SDS011;2042;47.956;9.222;2022-07-12T14:37:01;1.52;;;1.42;;
4053;SDS011;2042;47.956;9.222;2022-07-12T14:39:27;1.63;;;1.45;;
4053;SDS011;2042;47.956;9.222;2022-07-12T14:41:53;1.70;;;1.60;;
4053;SDS011;2042;47.956;9.222;2022-07-12T14:44:20;1.60;;;1.50;;
4053;SDS011;2042;47.956;9.222;2022-07-12T14:46:46;1.50;;;1.40;;
4053;SDS011;2042;47.956;9.222;2022-07-12T14:49:12;2.75;;;1.60;;
4053;SDS011;2042;47.956;9.222;2022-07-12T14:51:38;2.25;;;1.30;;
4053;SDS011;2042;47.956;9.222;2022-07-12T14:54:04;1.33;;;1.23;;
4053;SDS011;2042;47.956;9.222;2022-07-12T14:56:29;2.67;;;1.60;;
4053;SDS011;2042;47.956;9.222;2022-07-12T14:58:55;7.10;;;2.13;;
4053;SDS011;2042;47.956;9.222;2022-07-12T15:01:21;2.38;;;1.30;;
4053;SDS011;2042;47.956;9.222;2022-07-12T15:03:47;1.45;;;1.35;;
4053;SDS011;2042;47.956;9.222;2022-07-12T15:06:13;1.70;;;1.60;;
4053;SDS011;2042;47.956;9.222;2022-07-12T15:08:39;2.28;;;1.40;;
4053;SDS011;2042;47.956;9.222;2022-07-12T15:11:04;1.30;;;1.20;;
4053;SDS011;2042;47.956;9.222;2022-07-12T15:13:30;1.35;;;1.25;;
4053;SDS011;2042;47.956;9.222;2022-07-12T15:15:56;1.67;;;1.10;;
4053;SDS011;2042;47.956;9.222;2022-07-12T15:18:22;1.40;;;1.30;;
4053;SDS011;2042;47.956;9.222;2022-07-12T15:20:49;1.77;;;1.67;;
4053;SDS011;2042;47.956;9.222;2022-07-12T15:23:15;1.33;;;1.23;;
4053;SDS011;2042;47.956;9.222;2022-07-12T15:25:41;9.25;;;1.50;;
4053;SDS011;2042;47.956;9.222;2022-07-12T15:28:07;4.20;;;1.50;;
4053;SDS011;2042;47.956;9.222;2022-07-12T15:30:33;1.92;;;1.50;;
4053;SDS011;2042;47.956;9.222;2022-07-12T15:32:59;1.63;;;1.52;;
4053;SDS011;2042;47.956;9.222;2022-07-12T15:35:25;2.08;;;1.42;;
4053;SDS011;2042;47.956;9.222;2022-07-12T15:37:50;1.70;;;1.48;;
4053;SDS011;2042;47.956;9.222;2022-07-12T15:40:16;1.95;;;1.50;;
4053;SDS011;2042;47.956;9.222;2022-07-12T15:42:42;1.50;;;1.40;;
4053;SDS011;2042;47.956;9.222;2022-07-12T15:45:09;1.60;;;1.50;;
4053;SDS011;2042;47.956;9.222;2022-07-12T15:47:35;2.35;;;1.70;;